Time;durP1;ratioP1;P1;durP2;ratioP2;P2;SDS_P1;SDS_P2;PMS_P1;PMS_P2;Temp;Humidity;BMP_temperature;BMP_pressure;BME280_temperature;BME280_humidity;BME280_pressure;Samples;Min_cycle;Max_cycle;Signal;HPM_P1;HPM_P2
2021/11/19 00:02:20;;;;;;;11.52;6.28;;;11.40;59.70;;;;;;5050522;28;20037;-62
2021/11/19 00:04:46;;;;;;;6.93;5.75;;;11.40;60.00;;;;;;5049163;28;20510;-66
2021/11/19 00:07:14;;;;;;;7.07;5.85;;;11.50;59.70;;;;;;5050224;28;20037;-61
2021/11/19 00:09:40;;;;;;;8.27;5.93;;;11.50;59.30;;;;;;5050416;28;20056;-61
2021/11/19 00:12:06;;;;;;;9.50;5.82;;;11.50;59.30;;;;;;5050642;28;20406;-61
2021/11/19 00:14:32;;;;;;;7.90;6.30;;;11.60;59.60;;;;;;5049765;28;20040;-64
2021/11/19 00:17:05;;;;;;;7.25;6.15;;;11.50;59.60;;;;;;5050963;28;20032;-60
2021/11/19 00:19:37;;;;;;;8.40;6.40;;;11.50;59.20;;;;;;5032408;28;20283;-62
2021/11/19 00:22:07;;;;;;;6.90;6.15;;;11.50;59.20;;;;;;5050402;28;20049;-64
2021/11/19 00:24:37;;;;;;;8.52;6.78;;;11.50;59.70;;;;;;5049611;28;20111;-61
2021/11/19 00:27:06;;;;;;;9.98;7.20;;;11.50;59.50;;;;;;5032873;28;20032;-65
2021/11/19 00:29:34;;;;;;;11.50;7.63;;;11.50;59.80;;;;;;5050042;28;20079;-62
2021/11/19 00:32:01;;;;;;;11.13;7.03;;;11.50;60.00;;;;;;5050807;28;20052;-60
2021/11/19 00:34:27;;;;;;;8.90;7.05;;;11.40;59.90;;;;;;5032310;28;20045;-63
2021/11/19 00:36:58;;;;;;;8.20;7.20;;;11.40;60.00;;;;;;5032858;28;20078;-61
2021/11/19 00:39:27;;;;;;;10.40;8.02;;;11.50;59.90;;;;;;5050784;28;20031;-62
2021/11/19 00:41:54;;;;;;;10.10;8.13;;;11.50;59.80;;;;;;5050840;28;20020;-53
2021/11/19 00:44:21;;;;;;;10.82;8.05;;;11.50;59.70;;;;;;5050514;28;20036;-59
2021/11/19 00:46:48;;;;;;;10.40;8.38;;;11.50;59.60;;;;;;5032523;28;20334;-62
2021/11/19 00:49:17;;;;;;;8.85;7.70;;;11.60;60.20;;;;;;5032959;28;20106;-61
2021/11/19 00:51:46;;;;;;;10.27;7.75;;;11.60;59.90;;;;;;5050316;28;20036;-61
2021/11/19 00:54:13;;;;;;;9.45;8.27;;;11.60;59.70;;;;;;5050491;28;20040;-60
2021/11/19 00:56:51;;;;;;;9.23;7.78;;;11.60;59.70;;;;;;5032141;28;20108;-62
2021/11/19 00:59:21;;;;;;;11.27;7.93;;;11.60;59.70;;;;;;5053579;28;20466;-62
2021/11/19 01:01:57;;;;;;;11.15;7.60;;;11.60;59.70;;;;;;5053531;28;20174;-62
2021/11/19 01:04:23;;;;;;;10.32;7.78;;;11.60;59.60;;;;;;5036510;28;20033;-62
2021/11/19 01:06:49;;;;;;;9.95;8.32;;;11.60;59.80;;;;;;5054354;28;20032;-60
2021/11/19 01:09:24;;;;;;;9.93;8.18;;;11.60;60.00;;;;;;5054831;28;20110;-60
2021/11/19 01:11:51;;;;;;;9.75;8.25;;;11.60;60.00;;;;;;5036280;28;20032;-61
2021/11/19 01:14:23;;;;;;;10.80;8.02;;;11.60;59.80;;;;;;5053746;28;20056;-63
2021/11/19 01:16:55;;;;;;;10.52;8.20;;;11.60;59.80;;;;;;5036170;28;20246;-62
2021/11/19 01:19:30;;;;;;;11.55;8.75;;;11.60;59.60;;;;;;5020688;28;20025;-63
2021/11/19 01:22:00;;;;;;;11.30;8.38;;;11.60;59.70;;;;;;5053948;28;20111;-60
2021/11/19 01:24:28;;;;;;;9.85;8.70;;;11.60;59.80;;;;;;5054306;28;20075;-62
2021/11/19 01:26:54;;;;;;;10.80;8.75;;;11.60;60.00;;;;;;5054126;28;20524;-63
2021/11/19 01:29:22;;;;;;;11.35;9.18;;;11.60;60.30;;;;;;5054218;28;20037;-62
2021/11/19 01:31:57;;;;;;;12.10;9.70;;;11.60;60.10;;;;;;5035723;28;20392;-63
2021/11/19 01:34:24;;;;;;;10.50;9.25;;;11.60;60.10;;;;;;5035764;28;20037;-62
2021/11/19 01:36:51;;;;;;;12.25;9.10;;;11.60;60.10;;;;;;5035954;28;20047;-63
2021/11/19 01:39:20;;;;;;;12.13;9.02;;;11.60;60.50;;;;;;5035883;28;20032;-60
2021/11/19 01:42:04;;;;;;;11.50;9.45;;;11.70;60.30;;;;;;5035647;28;20590;-62
2021/11/19 01:44:40;;;;;;;11.60;9.25;;;11.70;60.50;;;;;;5052807;28;20489;-63
2021/11/19 01:47:11;;;;;;;11.50;9.60;;;11.70;60.20;;;;;;5053535;28;20052;-63
2021/11/19 01:49:39;;;;;;;12.25;9.40;;;11.70;60.40;;;;;;5034919;28;20040;-65
2021/11/19 01:52:15;;;;;;;13.05;10.13;;;11.70;60.50;;;;;;5053720;28;20025;-63
2021/11/19 01:55:16;;;;;;;13.32;10.35;;;11.70;61.00;;;;;;5052709;28;20150;-61
2021/11/19 01:57:59;;;;;;;13.80;10.95;;;11.70;61.10;;;;;;5025178;28;20049;-62
2021/11/19 02:00:37;;;;;;;14.07;11.18;;;11.70;60.90;;;;;;5053857;28;20428;-62
2021/11/19 02:03:05;;;;;;;14.38;11.65;;;11.70;61.00;;;;;;5036187;28;20129;-60
2021/11/19 02:05:40;;;;;;;13.05;11.20;;;11.70;61.10;;;;;;5053748;28;20029;-62
2021/11/19 02:08:13;;;;;;;15.02;11.95;;;11.70;61.70;;;;;;5053925;28;20037;-69
2021/11/19 02:10:53;;;;;;;24.20;12.45;;;11.70;61.70;;;;;;5052384;28;20028;-62
2021/11/19 02:13:30;;;;;;;16.55;13.18;;;11.60;62.00;;;;;;5054205;28;20028;-64
2021/11/19 02:16:02;;;;;;;17.20;13.02;;;11.60;62.00;;;;;;5036069;28;20381;-62
2021/11/19 02:18:44;;;;;;;18.20;12.55;;;11.60;62.10;;;;;;5053228;28;20049;-63
2021/11/19 02:21:23;;;;;;;18.13;13.00;;;11.60;63.10;;;;;;5053642;28;20049;-66
2021/11/19 02:24:07;;;;;;;15.73;13.05;;;11.50;63.40;;;;;;5053104;28;20033;-62
2021/11/19 02:27:02;;;;;;;17.95;14.05;;;11.50;63.80;;;;;;5053654;28;20520;-61
2021/11/19 02:29:29;;;;;;;17.10;13.07;;;11.50;64.00;;;;;;5031239;28;20577;-62
2021/11/19 02:32:03;;;;;;;15.02;12.35;;;11.50;64.50;;;;;;5053476;28;20359;-69
2021/11/19 02:34:30;;;;;;;17.58;13.73;;;11.50;65.00;;;;;;5035235;28;20025;-62
2021/11/19 02:37:03;;;;;;;15.18;13.35;;;11.50;64.70;;;;;;5035438;28;20076;-65
2021/11/19 02:39:34;;;;;;;17.13;14.48;;;11.50;65.10;;;;;;5053262;28;20083;-67
2021/11/19 02:42:09;;;;;;;18.90;14.32;;;11.50;64.90;;;;;;5035996;28;20599;-70
2021/11/19 02:44:35;;;;;;;18.23;13.90;;;11.50;64.80;;;;;;5053257;28;20447;-63
2021/11/19 02:47:07;;;;;;;17.42;14.05;;;11.50;64.50;;;;;;5053875;28;20025;-62
2021/11/19 02:49:51;;;;;;;15.57;12.68;;;11.50;64.70;;;;;;5051898;28;20021;-65
2021/11/19 02:52:27;;;;;;;19.63;15.20;;;11.50;64.80;;;;;;5053587;28;20029;-62
2021/11/19 02:54:54;;;;;;;16.98;14.50;;;11.40;64.70;;;;;;5052939;28;20021;-61
2021/11/19 02:57:21;;;;;;;20.63;15.25;;;11.50;64.50;;;;;;5053327;28;20035;-65
2021/11/19 02:59:48;;;;;;;19.27;15.52;;;11.40;64.70;;;;;;5034835;28;20057;-65
2021/11/19 03:02:20;;;;;;;17.00;14.63;;;11.40;64.50;;;;;;5053182;28;20142;-63
2021/11/19 03:04:53;;;;;;;17.48;13.82;;;11.40;64.40;;;;;;5052747;28;20029;-61
2021/11/19 03:07:19;;;;;;;16.08;13.65;;;11.50;64.30;;;;;;5034962;28;20458;-65
2021/11/19 03:10:02;;;;;;;17.42;14.60;;;11.40;64.40;;;;;;5034468;28;20021;-61
2021/11/19 03:12:29;;;;;;;18.90;14.27;;;11.40;64.40;;;;;;5035193;28;20374;-63
2021/11/19 03:14:57;;;;;;;17.98;14.05;;;11.40;65.10;;;;;;5034931;28;20028;-60
2021/11/19 03:17:24;;;;;;;17.75;14.98;;;11.40;64.40;;;;;;5052912;28;20029;-62
2021/11/19 03:19:50;;;;;;;17.73;14.93;;;11.40;64.60;;;;;;5052362;28;20043;-60
2021/11/19 03:22:21;;;;;;;16.95;14.40;;;11.40;64.30;;;;;;5052696;28;20150;-61
2021/11/19 03:24:48;;;;;;;18.15;14.57;;;11.40;64.30;;;;;;5034232;28;20036;-62
2021/11/19 03:27:16;;;;;;;18.50;14.55;;;11.50;64.10;;;;;;5052656;28;20025;-64
2021/11/19 03:29:44;;;;;;;16.83;13.65;;;11.50;63.80;;;;;;5052120;28;20380;-65
2021/11/19 03:32:13;;;;;;;16.98;13.77;;;11.50;63.50;;;;;;5052303;28;20078;-62
2021/11/19 03:34:39;;;;;;;16.20;13.23;;;11.50;63.40;;;;;;5051715;28;20465;-64
2021/11/19 03:37:06;;;;;;;17.23;12.18;;;11.50;63.50;;;;;;5052236;28;20425;-60
2021/11/19 03:39:32;;;;;;;15.85;13.15;;;11.50;63.80;;;;;;5051618;28;20047;-62
2021/11/19 03:42:00;;;;;;;17.50;14.35;;;11.50;63.30;;;;;;5034483;28;20116;-65
2021/11/19 03:44:36;;;;;;;14.95;12.95;;;11.50;63.10;;;;;;5034423;28;20484;-60
2021/11/19 03:47:08;;;;;;;15.23;12.98;;;11.50;63.10;;;;;;5052266;28;20115;-65
2021/11/19 03:49:35;;;;;;;16.77;13.65;;;11.60;63.10;;;;;;5033540;28;20029;-61
2021/11/19 03:52:14;;;;;;;18.67;12.60;;;11.60;62.80;;;;;;5034123;28;20027;-62
2021/11/19 03:54:43;;;;;;;19.40;14.75;;;11.60;63.30;;;;;;5033833;28;20036;-63
2021/11/19 03:57:10;;;;;;;18.85;13.70;;;11.70;62.70;;;;;;5051591;28;20056;-60
2021/11/19 03:59:36;;;;;;;19.45;13.65;;;11.70;62.30;;;;;;5033780;28;20424;-60
2021/11/19 04:02:04;;;;;;;19.38;14.27;;;11.60;62.30;;;;;;5051869;28;20465;-64
2021/11/19 04:04:33;;;;;;;19.10;13.23;;;11.60;62.50;;;;;;5051775;28;20082;-61
2021/11/19 04:07:00;;;;;;;23.63;13.73;;;11.70;62.30;;;;;;5052064;28;20386;-61
2021/11/19 04:09:27;;;;;;;19.60;13.88;;;11.70;62.40;;;;;;5033707;28;20028;-60
2021/11/19 04:11:55;;;;;;;17.40;13.27;;;11.60;62.50;;;;;;5033565;28;20025;-61
2021/11/19 04:14:21;;;;;;;18.02;13.50;;;11.60;63.20;;;;;;5051598;28;20033;-65
2021/11/19 04:16:50;;;;;;;16.50;13.38;;;11.60;63.30;;;;;;5033529;28;20025;-62
2021/11/19 04:19:18;;;;;;;18.40;14.27;;;11.60;63.40;;;;;;5051963;28;20025;-68
2021/11/19 04:21:46;;;;;;;19.67;14.55;;;11.60;63.30;;;;;;5051293;28;20049;-60
2021/11/19 04:24:15;;;;;;;18.90;13.80;;;11.60;62.90;;;;;;5033684;28;20304;-59
2021/11/19 04:26:41;;;;;;;20.80;14.32;;;11.60;62.90;;;;;;5051574;28;20104;-64
2021/11/19 04:29:07;;;;;;;18.55;13.95;;;11.60;63.00;;;;;;5051699;28;20119;-63
2021/11/19 04:31:35;;;;;;;22.27;14.30;;;11.60;63.20;;;;;;5051303;28;20150;-61
2021/11/19 04:34:04;;;;;;;17.77;13.80;;;11.60;63.90;;;;;;5036620;28;20531;-65
2021/11/19 04:36:30;;;;;;;19.17;14.25;;;11.60;63.80;;;;;;5055506;28;20040;-64
2021/11/19 04:38:56;;;;;;;22.15;14.57;;;11.60;63.60;;;;;;5055813;28;20047;-62
2021/11/19 04:41:22;;;;;;;17.33;13.77;;;11.60;63.40;;;;;;5055551;28;20510;-62
2021/11/19 04:43:48;;;;;;;20.13;14.65;;;11.60;63.60;;;;;;5053943;28;20465;-60
2021/11/19 04:46:14;;;;;;;18.25;13.50;;;11.60;63.40;;;;;;5037518;28;20064;-59
2021/11/19 04:48:40;;;;;;;18.30;14.30;;;11.60;64.00;;;;;;5037178;28;20033;-59
2021/11/19 04:51:16;;;;;;;18.98;13.70;;;11.60;63.70;;;;;;5037762;28;20064;-61
2021/11/19 04:53:42;;;;;;;18.80;14.50;;;11.50;63.60;;;;;;5055091;28;20116;-62
2021/11/19 04:56:08;;;;;;;18.05;13.90;;;11.60;63.40;;;;;;5055382;28;20350;-60
2021/11/19 04:58:35;;;;;;;19.50;14.38;;;11.60;63.50;;;;;;5037352;28;20032;-59
2021/11/19 05:01:05;;;;;;;15.45;12.00;;;11.60;63.00;;;;;;5055115;28;20424;-60
2021/11/19 05:03:32;;;;;;;16.77;12.68;;;11.60;62.90;;;;;;5054377;28;20150;-63
2021/11/19 05:05:57;;;;;;;18.65;13.77;;;11.60;63.10;;;;;;5055107;28;20053;-60
2021/11/19 05:08:24;;;;;;;18.77;12.80;;;11.60;62.70;;;;;;5037129;28;20044;-61
2021/11/19 05:10:52;;;;;;;16.80;12.73;;;11.60;62.60;;;;;;5054875;28;20100;-61
2021/11/19 05:13:18;;;;;;;15.02;11.60;;;11.60;62.60;;;;;;5055149;28;20032;-61
2021/11/19 05:15:47;;;;;;;18.10;12.38;;;11.60;63.00;;;;;;5054471;28;20029;-62
2021/11/19 05:18:13;;;;;;;18.63;12.20;;;11.60;62.70;;;;;;5055364;28;20025;-66
2021/11/19 05:20:40;;;;;;;16.42;11.63;;;11.60;62.70;;;;;;5053747;28;20088;-61
2021/11/19 05:23:07;;;;;;;16.35;12.40;;;11.70;62.60;;;;;;5054782;28;20091;-62
2021/11/19 05:25:35;;;;;;;15.98;12.80;;;11.70;62.40;;;;;;5054626;28;20112;-62
2021/11/19 05:28:01;;;;;;;17.77;12.52;;;11.70;62.30;;;;;;5054891;28;20029;-66
2021/11/19 05:30:28;;;;;;;16.38;12.00;;;11.70;62.30;;;;;;5054711;28;20108;-64
2021/11/19 05:32:54;;;;;;;16.30;13.32;;;11.70;62.30;;;;;;5036341;28;20087;-61
2021/11/19 05:35:21;;;;;;;16.20;12.00;;;11.80;62.30;;;;;;5054357;28;20112;-63
2021/11/19 05:37:47;;;;;;;22.13;12.52;;;11.80;62.00;;;;;;5054250;28;20100;-60
2021/11/19 05:40:15;;;;;;;14.75;11.43;;;11.90;61.80;;;;;;5054719;28;20040;-61
2021/11/19 05:42:42;;;;;;;16.67;12.15;;;11.80;61.60;;;;;;5053989;28;20484;-60
2021/11/19 05:45:10;;;;;;;14.80;11.63;;;11.90;62.00;;;;;;5054640;28;20021;-64
2021/11/19 05:47:36;;;;;;;16.30;12.90;;;11.90;61.60;;;;;;5036107;28;20371;-60
2021/11/19 05:50:05;;;;;;;19.65;11.70;;;11.90;61.60;;;;;;5054512;28;20025;-59
2021/11/19 05:52:31;;;;;;;13.98;10.48;;;11.90;61.40;;;;;;5053501;28;20504;-61
2021/11/19 05:54:59;;;;;;;15.57;10.88;;;11.90;61.20;;;;;;5054056;28;20029;-60
2021/11/19 05:57:25;;;;;;;13.00;10.75;;;11.90;61.10;;;;;;5036218;28;20112;-60
2021/11/19 05:59:50;;;;;;;17.05;11.25;;;11.90;61.40;;;;;;5053731;28;20036;-61
2021/11/19 06:02:18;;;;;;;17.75;12.18;;;11.80;61.40;;;;;;5054508;28;20020;-57
2021/11/19 06:04:45;;;;;;;20.98;13.10;;;11.80;61.70;;;;;;5035766;28;20119;-60
2021/11/19 06:07:11;;;;;;;19.40;11.57;;;11.80;61.60;;;;;;5054038;28;20025;-59
2021/11/19 06:09:40;;;;;;;14.27;11.35;;;11.80;61.40;;;;;;5053279;28;20031;-61
2021/11/19 06:12:14;;;;;;;16.30;11.73;;;11.80;61.60;;;;;;5036236;28;20035;-69
2021/11/19 06:14:46;;;;;;;15.95;12.15;;;11.80;61.70;;;;;;5053038;28;20048;-62
2021/11/19 06:17:24;;;;;;;15.77;12.07;;;11.90;61.80;;;;;;5053523;28;20039;-60
2021/11/19 06:19:55;;;;;;;16.80;12.82;;;11.90;62.10;;;;;;5050186;28;20035;-56
2021/11/19 06:22:24;;;;;;;18.75;12.68;;;11.90;61.60;;;;;;5054055;28;20068;-58
2021/11/19 06:24:53;;;;;;;18.75;13.75;;;11.90;61.90;;;;;;5052751;28;20367;-60
2021/11/19 06:27:24;;;;;;;16.75;12.30;;;11.90;61.50;;;;;;5035476;28;20025;-60
2021/11/19 06:29:52;;;;;;;18.35;14.27;;;12.00;62.10;;;;;;5035137;28;20029;-54
2021/11/19 06:32:18;;;;;;;20.67;13.55;;;12.00;61.70;;;;;;5035542;28;20025;-62
2021/11/19 06:34:44;;;;;;;19.13;13.23;;;11.90;61.70;;;;;;5034323;28;20142;-63
2021/11/19 06:37:10;;;;;;;27.88;13.40;;;12.00;62.10;;;;;;5035167;28;20484;-59
2021/11/19 06:39:41;;;;;;;20.25;13.82;;;12.00;61.80;;;;;;5052124;28;20078;-61
2021/11/19 06:42:08;;;;;;;17.50;13.10;;;11.90;62.30;;;;;;5052857;28;20021;-62
2021/11/19 06:44:34;;;;;;;16.70;13.15;;;12.00;62.00;;;;;;5051389;28;20482;-62
2021/11/19 06:47:00;;;;;;;16.13;13.02;;;11.90;62.90;;;;;;5034263;28;20082;-60
2021/11/19 06:49:26;;;;;;;16.08;12.85;;;12.00;62.30;;;;;;5018170;28;20056;-61
2021/11/19 06:51:52;;;;;;;18.88;14.10;;;12.00;62.50;;;;;;5018666;28;20200;-56
2021/11/19 06:54:17;;;;;;;18.13;13.38;;;12.00;62.00;;;;;;5053328;28;20427;-60
2021/11/19 06:56:44;;;;;;;15.52;12.70;;;12.10;62.10;;;;;;5033721;28;20037;-59
2021/11/19 06:59:09;;;;;;;18.25;14.52;;;12.00;62.50;;;;;;5052127;28;20025;-60
2021/11/19 07:01:36;;;;;;;16.60;12.35;;;12.10;61.70;;;;;;5051809;28;20032;-65
2021/11/19 07:04:02;;;;;;;21.13;13.25;;;12.10;61.80;;;;;;5052528;28;20033;-63
2021/11/19 07:06:30;;;;;;;15.85;12.38;;;12.10;60.90;;;;;;5052721;28;20033;-59
2021/11/19 07:08:57;;;;;;;17.75;12.00;;;12.20;61.40;;;;;;5034646;28;20025;-62
2021/11/19 07:11:25;;;;;;;17.35;11.20;;;12.20;62.00;;;;;;5035389;28;20372;-62
2021/11/19 07:13:53;;;;;;;19.08;11.88;;;12.20;61.00;;;;;;5052282;28;20036;-60
2021/11/19 07:16:21;;;;;;;17.30;12.63;;;12.20;61.00;;;;;;5035261;28;20114;-63
2021/11/19 07:18:47;;;;;;;16.90;12.60;;;12.20;60.60;;;;;;5050998;28;20045;-60
2021/11/19 07:21:13;;;;;;;18.35;12.40;;;12.20;60.70;;;;;;5034949;28;20370;-60
2021/11/19 07:23:39;;;;;;;19.50;12.82;;;12.30;61.30;;;;;;5052349;28;20100;-61
2021/11/19 07:26:06;;;;;;;15.55;12.55;;;12.20;60.30;;;;;;5052866;28;20032;-60
2021/11/19 07:28:32;;;;;;;17.90;12.70;;;12.30;60.60;;;;;;5035165;28;20326;-57
2021/11/19 07:31:02;;;;;;;18.95;12.90;;;12.30;60.60;;;;;;5052400;28;20021;-60
2021/11/19 07:33:28;;;;;;;15.48;12.10;;;12.20;60.60;;;;;;5052865;28;20037;-58
2021/11/19 07:35:57;;;;;;;16.67;11.75;;;12.20;60.90;;;;;;5051787;28;20036;-60
2021/11/19 07:38:24;;;;;;;17.08;13.35;;;12.10;60.90;;;;;;5034817;28;20032;-60
2021/11/19 07:40:51;;;;;;;17.50;12.52;;;12.20;61.20;;;;;;5051982;28;20032;-58
2021/11/19 07:43:19;;;;;;;18.10;12.73;;;12.20;60.70;;;;;;5052828;28;20403;-63
2021/11/19 07:45:45;;;;;;;21.77;12.35;;;12.30;61.00;;;;;;5052100;28;20021;-61
2021/11/19 07:48:15;;;;;;;18.92;11.73;;;12.30;60.50;;;;;;5052185;28;20470;-60
2021/11/19 07:50:54;;;;;;;19.20;12.15;;;12.30;60.90;;;;;;5051775;28;20158;-61
2021/11/19 07:53:21;;;;;;;17.67;11.63;;;12.30;60.70;;;;;;5034503;28;20215;-62
2021/11/19 07:55:49;;;;;;;17.23;11.20;;;12.20;60.70;;;;;;5034332;28;20029;-61
2021/11/19 07:58:17;;;;;;;15.35;11.82;;;12.30;60.30;;;;;;5052465;28;20032;-65
2021/11/19 08:00:46;;;;;;;15.52;10.93;;;12.40;60.30;;;;;;5051727;28;20488;-62
2021/11/19 08:03:13;;;;;;;16.35;10.50;;;12.40;59.90;;;;;;5052328;28;20032;-58
2021/11/19 08:05:44;;;;;;;14.75;11.07;;;12.50;59.50;;;;;;5051524;28;20473;-64
2021/11/19 08:08:10;;;;;;;12.93;10.52;;;12.50;59.40;;;;;;5050960;28;20029;-60
2021/11/19 08:10:36;;;;;;;14.40;10.57;;;12.60;59.30;;;;;;5051993;28;20029;-60
2021/11/19 08:13:02;;;;;;;14.35;10.98;;;12.60;59.50;;;;;;5033563;28;20366;-59
2021/11/19 08:15:30;;;;;;;15.02;10.65;;;12.50;59.30;;;;;;5051871;28;20029;-64
2021/11/19 08:17:56;;;;;;;15.85;10.88;;;12.60;59.70;;;;;;5051492;28;20018;-60
2021/11/19 08:20:31;;;;;;;13.65;10.80;;;12.60;58.90;;;;;;5051821;28;20036;-60
2021/11/19 08:22:57;;;;;;;33.47;11.98;;;12.60;59.30;;;;;;5051528;28;20330;-60
2021/11/19 08:25:24;;;;;;;19.80;10.35;;;12.70;58.90;;;;;;5033781;28;20047;-54
2021/11/19 08:27:54;;;;;;;16.63;10.80;;;12.70;59.10;;;;;;5033547;28;20025;-55
2021/11/19 08:30:30;;;;;;;17.00;10.57;;;12.70;58.60;;;;;;5051873;28;20029;-60
2021/11/19 08:33:02;;;;;;;14.88;10.70;;;12.70;58.90;;;;;;5033749;28;20029;-58
2021/11/19 08:35:29;;;;;;;14.30;10.98;;;12.70;59.40;;;;;;5034105;28;20044;-62
2021/11/19 08:37:55;;;;;;;15.07;11.20;;;12.70;58.90;;;;;;5051241;28;20025;-62
2021/11/19 08:40:23;;;;;;;13.93;10.98;;;12.80;59.40;;;;;;5052049;28;20021;-64
2021/11/19 08:42:49;;;;;;;17.75;10.75;;;12.80;59.20;;;;;;5049706;28;20031;-61
2021/11/19 08:45:18;;;;;;;17.13;11.55;;;12.80;58.80;;;;;;5034082;28;20025;-65
2021/11/19 08:47:49;;;;;;;17.73;13.00;;;12.70;58.90;;;;;;5051340;28;20100;-70
2021/11/19 08:50:17;;;;;;;16.95;10.82;;;12.70;58.90;;;;;;5033644;28;20492;-63
2021/11/19 08:52:43;;;;;;;13.45;9.43;;;12.70;59.70;;;;;;5050622;28;20481;-63
2021/11/19 08:55:11;;;;;;;14.13;11.30;;;12.80;59.50;;;;;;5032731;28;20029;-66
2021/11/19 08:57:36;;;;;;;19.13;11.25;;;12.80;59.00;;;;;;5050030;28;20068;-62
2021/11/19 09:00:08;;;;;;;18.65;10.07;;;12.70;59.30;;;;;;5032964;28;20104;-61
2021/11/19 09:02:34;;;;;;;14.38;10.73;;;12.80;59.10;;;;;;5051588;28;20036;-65
2021/11/19 09:05:00;;;;;;;14.88;11.00;;;12.80;58.50;;;;;;5050948;28;20107;-61
2021/11/19 09:07:27;;;;;;;17.45;11.50;;;12.80;58.40;;;;;;5031778;28;20533;-64
2021/11/19 09:09:54;;;;;;;16.38;10.35;;;12.90;58.70;;;;;;5052514;28;20029;-61
2021/11/19 09:12:19;;;;;;;13.85;10.27;;;12.90;59.00;;;;;;5034199;28;20021;-66
2021/11/19 09:14:45;;;;;;;14.82;9.30;;;12.90;58.90;;;;;;5050444;28;20098;-62
2021/11/19 09:17:41;;;;;;;16.65;10.15;;;13.00;58.30;;;;;;5051347;28;20029;-65
2021/11/19 09:20:13;;;;;;;16.15;10.38;;;13.10;57.90;;;;;;5035423;28;20029;-61
2021/11/19 09:22:47;;;;;;;15.23;9.27;;;13.10;57.40;;;;;;5054149;28;20049;-62
2021/11/19 09:25:16;;;;;;;14.27;10.18;;;13.10;57.20;;;;;;5036452;28;20086;-62
2021/11/19 09:27:43;;;;;;;14.65;10.98;;;13.00;57.20;;;;;;5035879;28;20029;-61
2021/11/19 09:30:28;;;;;;;13.32;9.73;;;13.10;57.60;;;;;;5053467;28;20081;-54
2021/11/19 09:32:56;;;;;;;13.85;10.43;;;13.10;57.30;;;;;;5018595;28;20045;-58
2021/11/19 09:35:26;;;;;;;14.48;9.73;;;13.10;57.10;;;;;;5053441;28;20060;-62
2021/11/19 09:37:52;;;;;;;15.02;10.32;;;13.20;57.40;;;;;;5050208;28;20461;-56
2021/11/19 09:40:29;;;;;;;13.52;9.60;;;13.10;58.00;;;;;;5035130;28;20032;-57
2021/11/19 09:43:28;;;;;;;15.80;10.10;;;13.10;57.80;;;;;;5033173;28;20024;-60
2021/11/19 09:46:01;;;;;;;15.32;10.40;;;13.00;58.10;;;;;;5035366;28;20126;-64
2021/11/19 09:48:54;;;;;;;14.95;10.43;;;13.00;58.00;;;;;;5035704;28;20473;-58
2021/11/19 09:51:39;;;;;;;14.82;10.82;;;13.00;58.30;;;;;;5053665;28;20041;-59
2021/11/19 09:54:46;;;;;;;15.65;10.13;;;13.00;58.50;;;;;;5035100;28;20278;-60
2021/11/19 09:57:33;;;;;;;14.63;9.40;;;13.00;58.50;;;;;;4997000;28;20716;-67
2021/11/19 10:00:18;;;;;;;20.02;10.93;;;13.00;58.00;;;;;;5052661;28;20021;-58
2021/11/19 10:03:05;;;;;;;15.02;10.48;;;13.00;57.90;;;;;;5035421;28;20052;-61
2021/11/19 10:05:49;;;;;;;13.00;10.35;;;13.10;57.90;;;;;;5052219;28;20131;-56
2021/11/19 10:08:14;;;;;;;13.25;10.15;;;13.20;58.20;;;;;;5036122;28;20017;-55
2021/11/19 10:10:55;;;;;;;16.52;10.70;;;13.20;58.00;;;;;;5036122;28;20029;-60
2021/11/19 10:13:29;;;;;;;15.32;9.77;;;13.10;58.00;;;;;;5033809;28;20033;-58
2021/11/19 10:16:07;;;;;;;14.23;10.70;;;13.20;58.30;;;;;;5052958;28;20512;-63
2021/11/19 10:19:03;;;;;;;22.10;11.88;;;13.20;58.10;;;;;;5053759;28;20100;-57
2021/11/19 10:21:55;;;;;;;14.88;10.55;;;13.20;57.60;;;;;;5033827;28;20077;-61
2021/11/19 10:24:38;;;;;;;15.70;11.57;;;13.20;57.80;;;;;;5051734;28;20533;-56
2021/11/19 10:27:08;;;;;;;16.25;10.90;;;13.30;57.40;;;;;;5033571;28;20021;-56
2021/11/19 10:29:42;;;;;;;14.55;10.32;;;13.30;57.70;;;;;;5035771;28;20025;-56
2021/11/19 10:32:10;;;;;;;17.92;11.38;;;13.20;57.50;;;;;;5051999;28;20028;-56
2021/11/19 10:35:33;;;;;;;14.63;10.40;;;13.30;57.70;;;;;;5052753;28;20413;-57
2021/11/19 10:38:39;;;;;;;15.68;10.25;;;13.40;57.30;;;;;;5006479;28;20041;-60
2021/11/19 10:41:17;;;;;;;18.75;10.57;;;13.30;58.80;;;;;;5051275;28;20103;-58
2021/11/19 10:44:21;;;;;;;16.20;10.38;;;13.30;57.00;;;;;;5053002;28;20120;-57
2021/11/19 10:47:18;;;;;;;16.67;10.38;;;13.30;57.10;;;;;;5052736;28;20462;-61
2021/11/19 10:50:36;;;;;;;22.48;10.38;;;13.30;57.30;;;;;;5051323;28;20020;-56
2021/11/19 10:53:26;;;;;;;16.83;10.95;;;13.30;56.70;;;;;;5051846;28;20097;-56
2021/11/19 10:56:01;;;;;;;15.77;10.73;;;13.30;57.20;;;;;;5050751;28;20071;-55
2021/11/19 10:58:37;;;;;;;14.30;10.63;;;13.40;57.30;;;;;;5052782;28;20021;-61
2021/11/19 11:01:07;;;;;;;13.30;10.15;;;13.30;57.00;;;;;;5050552;28;20079;-60
2021/11/19 11:04:05;;;;;;;18.80;9.80;;;13.40;56.70;;;;;;5052385;28;20021;-59
2021/11/19 11:06:41;;;;;;;17.70;9.95;;;13.30;57.90;;;;;;5043815;28;20539;-58
2021/11/19 11:09:29;;;;;;;14.05;9.80;;;13.50;57.70;;;;;;5032653;28;20024;-57
2021/11/19 11:12:15;;;;;;;18.85;10.45;;;13.50;56.90;;;;;;5034160;28;20107;-61
2021/11/19 11:14:43;;;;;;;16.67;10.50;;;13.50;57.20;;;;;;5052386;28;20033;-61
2021/11/19 11:17:30;;;;;;;44.78;10.40;;;13.70;56.80;;;;;;5051646;28;20184;-60
2021/11/19 11:20:01;;;;;;;18.17;10.00;;;13.90;56.50;;;;;;5016151;28;20086;-59
2021/11/19 11:22:33;;;;;;;13.23;8.65;;;14.00;55.80;;;;;;5051408;28;20053;-59
2021/11/19 11:25:27;;;;;;;11.30;9.35;;;14.10;56.40;;;;;;5032404;28;20029;-60
2021/11/19 11:28:16;;;;;;;14.63;9.30;;;14.00;56.10;;;;;;5033652;28;20036;-60
2021/11/19 11:30:50;;;;;;;15.50;9.65;;;13.90;56.20;;;;;;5046165;28;20068;-56
2021/11/19 11:33:27;;;;;;;16.13;9.65;;;14.00;56.50;;;;;;5030276;28;20244;-58
2021/11/19 11:36:18;;;;;;;17.65;10.02;;;14.10;56.20;;;;;;5045651;28;20029;-60
2021/11/19 11:39:12;;;;;;;15.05;9.95;;;14.10;56.20;;;;;;5030685;28;20021;-61
2021/11/19 11:41:47;;;;;;;14.20;9.52;;;14.20;56.40;;;;;;5030673;28;20074;-63
2021/11/19 11:44:17;;;;;;;14.88;9.77;;;14.10;55.80;;;;;;5048198;28;20043;-60
2021/11/19 11:47:37;;;;;;;16.88;10.32;;;14.10;56.30;;;;;;5048804;28;20115;-61
2021/11/19 11:50:37;;;;;;;13.25;9.52;;;14.10;56.60;;;;;;4987099;28;20130;-56
2021/11/19 11:53:51;;;;;;;14.48;9.32;;;14.10;56.60;;;;;;5030699;28;20025;-60
2021/11/19 11:56:25;;;;;;;15.55;10.07;;;14.10;56.10;;;;;;5002938;28;20041;-60
2021/11/19 11:59:23;;;;;;;13.95;8.15;;;14.10;56.50;;;;;;5026535;28;20025;-63
2021/11/19 12:01:53;;;;;;;15.00;10.25;;;14.10;56.20;;;;;;5048872;28;20249;-58
2021/11/19 12:04:34;;;;;;;11.32;8.95;;;14.10;56.00;;;;;;5048914;28;20036;-61
2021/11/19 12:07:37;;;;;;;11.80;8.85;;;14.10;56.50;;;;;;5050810;28;20025;-62
2021/11/19 12:10:37;;;;;;;13.25;9.27;;;14.00;56.80;;;;;;5049337;28;20048;-60
2021/11/19 12:13:05;;;;;;;13.40;9.25;;;14.10;56.60;;;;;;5050065;28;20021;-62
2021/11/19 12:15:49;;;;;;;12.60;9.27;;;14.00;56.40;;;;;;5051223;28;20029;-58
2021/11/19 12:18:38;;;;;;;11.27;9.02;;;14.00;56.50;;;;;;5050922;28;20029;-61
2021/11/19 12:21:28;;;;;;;14.52;10.07;;;13.90;57.60;;;;;;5048459;28;20053;-59
2021/11/19 12:24:14;;;;;;;13.65;9.52;;;14.00;56.30;;;;;;5050262;28;20076;-58
2021/11/19 12:27:03;;;;;;;12.73;9.38;;;14.00;56.60;;;;;;5050646;28;20527;-55
2021/11/19 12:29:52;;;;;;;17.20;9.38;;;14.00;56.40;;;;;;5031545;28;20025;-57
2021/11/19 12:32:34;;;;;;;13.75;9.68;;;14.00;56.50;;;;;;5032619;28;20029;-60
2021/11/19 12:35:15;;;;;;;13.60;9.68;;;14.00;56.20;;;;;;5049633;28;20033;-58
2021/11/19 12:37:57;;;;;;;12.88;9.48;;;14.00;56.60;;;;;;5049307;28;20441;-60
2021/11/19 12:40:31;;;;;;;13.93;9.63;;;14.10;57.70;;;;;;5051029;28;20036;-55
2021/11/19 12:43:40;;;;;;;13.15;8.98;;;14.10;56.30;;;;;;5032700;28;20025;-52
2021/11/19 12:46:27;;;;;;;15.10;8.25;;;14.10;57.30;;;;;;5032342;28;20071;-52
2021/11/19 12:49:20;;;;;;;11.00;8.05;;;14.10;56.70;;;;;;5032400;28;20373;-61
2021/11/19 12:52:00;;;;;;;14.52;8.75;;;14.20;57.00;;;;;;5049527;28;20486;-56
2021/11/19 12:54:57;;;;;;;12.77;8.73;;;14.20;56.60;;;;;;5052682;28;20037;-54
2021/11/19 12:57:46;;;;;;;12.50;8.80;;;14.20;56.20;;;;;;5037339;28;20033;-63
2021/11/19 13:00:36;;;;;;;14.90;8.02;;;14.20;56.20;;;;;;5036831;28;20032;-56
2021/11/19 13:03:19;;;;;;;10.13;8.20;;;14.20;57.00;;;;;;5034886;28;20029;-61